EFMA/MHQ METAR and TAF weather

Enter ICAO airport designator
Station Type Date Time Source
EFMA METAR 2019/07/18 10:50 UTC NOAA

EFMA 181050Z AUTO VRB04KT 9999 FEW042 20/13 Q1012


Station Type Date Time Source
EFMA Decoded METAR 2019/07/18 10:50 UTC NOAA

Mariehamn / Aland Island, Finland (EFMA) 60-07N 019-54E
Jul 18, 2019 - 06:50 AM EDT / 2019.07.18 1050 UTC
Wind: Variable at 5 MPH (4 KT):0
Visibility: greater than 7 mile(s):0
Sky conditions: mostly clear
Temperature: 68 F (20 C)
Dew Point: 55 F (13 C)
Relative Humidity: 64%
Pressure (altimeter): 29.88 in. Hg (1012 hPa)
ob: EFMA 181050Z AUTO VRB04KT 9999 FEW042 20/13 Q1012
cycle: 11

Station Type Date Time Source
EFMA TAF 2014/05/01 21:18 UTC NOAA

TAF TAF EFMA 302037Z 3021/0106 08008KT CAVOK
TEMPO 3023/0101 02010KT 6000 RASN
BECMG 0101/0103 01012KT 4000 RASN BKN010 OVC025

Example: see airport list